sensor_id;sensor_type;location;lat;lon;timestamp;temperature;humidity
44121;DHT22;29783;52.504;13.478;2024-03-07T00:02:32;6.50;91.40
44121;DHT22;29783;52.504;13.478;2024-03-07T00:04:59;6.50;91.40
44121;DHT22;29783;52.504;13.478;2024-03-07T00:07:25;6.50;91.40
44121;DHT22;29783;52.504;13.478;2024-03-07T00:09:50;6.50;91.30
44121;DHT22;29783;52.504;13.478;2024-03-07T00:12:19;6.50;91.20
44121;DHT22;29783;52.504;13.478;2024-03-07T00:14:44;6.60;91.10
44121;DHT22;29783;52.504;13.478;2024-03-07T00:17:11;6.60;90.90
44121;DHT22;29783;52.504;13.478;2024-03-07T00:19:36;6.60;90.80
44121;DHT22;29783;52.504;13.478;2024-03-07T00:22:02;6.50;90.90
44121;DHT22;29783;52.504;13.478;2024-03-07T00:24:27;6.50;90.70
44121;DHT22;29783;52.504;13.478;2024-03-07T00:26:53;6.50;90.50
44121;DHT22;29783;52.504;13.478;2024-03-07T00:29:19;6.50;90.60
44121;DHT22;29783;52.504;13.478;2024-03-07T00:31:45;6.50;90.60
44121;DHT22;29783;52.504;13.478;2024-03-07T00:34:15;6.50;90.50
44121;DHT22;29783;52.504;13.478;2024-03-07T00:36:45;6.50;90.50
44121;DHT22;29783;52.504;13.478;2024-03-07T00:39:11;6.50;90.50
44121;DHT22;29783;52.504;13.478;2024-03-07T00:41:40;6.50;90.40
44121;DHT22;29783;52.504;13.478;2024-03-07T00:44:07;6.50;90.30
44121;DHT22;29783;52.504;13.478;2024-03-07T00:46:35;6.50;90.30
44121;DHT22;29783;52.504;13.478;2024-03-07T00:49:02;6.50;90.40
44121;DHT22;29783;52.504;13.478;2024-03-07T00:51:27;6.50;90.20
44121;DHT22;29783;52.504;13.478;2024-03-07T00:53:53;6.50;90.10
44121;DHT22;29783;52.504;13.478;2024-03-07T00:56:20;6.50;90.10
44121;DHT22;29783;52.504;13.478;2024-03-07T00:58:47;6.50;90.10
44121;DHT22;29783;52.504;13.478;2024-03-07T01:01:13;6.40;90.00
44121;DHT22;29783;52.504;13.478;2024-03-07T01:03:39;6.40;90.10
44121;DHT22;29783;52.504;13.478;2024-03-07T01:06:05;6.50;90.20
44121;DHT22;29783;52.504;13.478;2024-03-07T01:08:31;6.40;90.10
44121;DHT22;29783;52.504;13.478;2024-03-07T01:10:58;6.40;89.80
44121;DHT22;29783;52.504;13.478;2024-03-07T01:13:24;6.40;90.00
44121;DHT22;29783;52.504;13.478;2024-03-07T01:15:50;6.30;90.10
44121;DHT22;29783;52.504;13.478;2024-03-07T01:18:16;6.30;90.10
44121;DHT22;29783;52.504;13.478;2024-03-07T01:20:42;6.30;90.00
44121;DHT22;29783;52.504;13.478;2024-03-07T01:23:08;6.30;89.80
44121;DHT22;29783;52.504;13.478;2024-03-07T01:25:34;6.30;89.60
44121;DHT22;29783;52.504;13.478;2024-03-07T01:28:00;6.20;89.80
44121;DHT22;29783;52.504;13.478;2024-03-07T01:30:26;6.20;89.90
44121;DHT22;29783;52.504;13.478;2024-03-07T01:32:54;6.20;90.00
44121;DHT22;29783;52.504;13.478;2024-03-07T01:35:20;6.10;90.00
44121;DHT22;29783;52.504;13.478;2024-03-07T01:37:46;6.10;90.20
44121;DHT22;29783;52.504;13.478;2024-03-07T01:40:12;6.10;90.00
44121;DHT22;29783;52.504;13.478;2024-03-07T01:42:40;6.10;90.00
44121;DHT22;29783;52.504;13.478;2024-03-07T01:45:06;6.00;90.00
44121;DHT22;29783;52.504;13.478;2024-03-07T01:47:34;6.00;90.00
44121;DHT22;29783;52.504;13.478;2024-03-07T01:50:02;5.90;89.90
44121;DHT22;29783;52.504;13.478;2024-03-07T01:52:29;5.90;90.10
44121;DHT22;29783;52.504;13.478;2024-03-07T01:54:55;5.90;90.00
44121;DHT22;29783;52.504;13.478;2024-03-07T01:57:21;5.90;89.60
44121;DHT22;29783;52.504;13.478;2024-03-07T01:59:47;5.80;89.70
44121;DHT22;29783;52.504;13.478;2024-03-07T02:02:13;5.70;89.90
44121;DHT22;29783;52.504;13.478;2024-03-07T02:04:39;5.60;90.20
44121;DHT22;29783;52.504;13.478;2024-03-07T02:07:05;5.50;90.50
44121;DHT22;29783;52.504;13.478;2024-03-07T02:09:31;5.50;90.60
44121;DHT22;29783;52.504;13.478;2024-03-07T02:11:56;5.30;90.80
44121;DHT22;29783;52.504;13.478;2024-03-07T02:14:22;5.30;91.20
44121;DHT22;29783;52.504;13.478;2024-03-07T02:16:48;5.20;91.40
44121;DHT22;29783;52.504;13.478;2024-03-07T02:19:14;5.20;91.70
44121;DHT22;29783;52.504;13.478;2024-03-07T02:21:41;5.20;91.70
44121;DHT22;29783;52.504;13.478;2024-03-07T02:24:06;5.10;91.80
44121;DHT22;29783;52.504;13.478;2024-03-07T02:26:32;5.10;91.80
44121;DHT22;29783;52.504;13.478;2024-03-07T02:28:58;5.00;91.90
44121;DHT22;29783;52.504;13.478;2024-03-07T02:31:23;4.90;92.00
44121;DHT22;29783;52.504;13.478;2024-03-07T02:34:01;4.80;92.20
44121;DHT22;29783;52.504;13.478;2024-03-07T02:36:27;4.90;92.60
44121;DHT22;29783;52.504;13.478;2024-03-07T02:38:53;4.80;92.60
44121;DHT22;29783;52.504;13.478;2024-03-07T02:41:19;4.80;92.80
44121;DHT22;29783;52.504;13.478;2024-03-07T02:43:45;4.80;92.80
44121;DHT22;29783;52.504;13.478;2024-03-07T02:46:10;4.70;93.00
44121;DHT22;29783;52.504;13.478;2024-03-07T02:48:37;4.70;93.00
44121;DHT22;29783;52.504;13.478;2024-03-07T02:51:04;4.60;93.10
44121;DHT22;29783;52.504;13.478;2024-03-07T02:53:31;4.50;93.20
44121;DHT22;29783;52.504;13.478;2024-03-07T02:55:58;4.50;93.40
44121;DHT22;29783;52.504;13.478;2024-03-07T02:58:23;4.40;93.40
44121;DHT22;29783;52.504;13.478;2024-03-07T03:00:57;4.30;93.40
44121;DHT22;29783;52.504;13.478;2024-03-07T03:03:24;4.20;93.50
44121;DHT22;29783;52.504;13.478;2024-03-07T03:05:49;4.30;93.90
44121;DHT22;29783;52.504;13.478;2024-03-07T03:08:15;4.20;94.00
44121;DHT22;29783;52.504;13.478;2024-03-07T03:10:40;4.20;94.10
44121;DHT22;29783;52.504;13.478;2024-03-07T03:13:06;4.20;94.00
44121;DHT22;29783;52.504;13.478;2024-03-07T03:15:32;4.20;94.20
44121;DHT22;29783;52.504;13.478;2024-03-07T03:17:58;4.10;94.20
44121;DHT22;29783;52.504;13.478;2024-03-07T03:20:27;4.00;94.20
44121;DHT22;29783;52.504;13.478;2024-03-07T03:23:05;4.00;94.30
44121;DHT22;29783;52.504;13.478;2024-03-07T03:25:34;4.10;94.40
44121;DHT22;29783;52.504;13.478;2024-03-07T03:28:06;4.00;94.30
44121;DHT22;29783;52.504;13.478;2024-03-07T03:30:38;4.10;94.40
44121;DHT22;29783;52.504;13.478;2024-03-07T03:33:05;4.00;94.20
44121;DHT22;29783;52.504;13.478;2024-03-07T03:35:34;4.00;94.10
44121;DHT22;29783;52.504;13.478;2024-03-07T03:38:00;3.90;94.00
44121;DHT22;29783;52.504;13.478;2024-03-07T03:40:26;3.80;93.90
44121;DHT22;29783;52.504;13.478;2024-03-07T03:42:51;3.70;94.10
44121;DHT22;29783;52.504;13.478;2024-03-07T03:45:17;3.70;94.10
44121;DHT22;29783;52.504;13.478;2024-03-07T03:47:44;3.70;94.10
44121;DHT22;29783;52.504;13.478;2024-03-07T03:50:11;3.50;93.90
44121;DHT22;29783;52.504;13.478;2024-03-07T03:52:39;3.60;94.20
44121;DHT22;29783;52.504;13.478;2024-03-07T03:55:05;3.60;93.90
44121;DHT22;29783;52.504;13.478;2024-03-07T03:57:32;3.50;93.80
44121;DHT22;29783;52.504;13.478;2024-03-07T03:59:59;3.50;93.80
44121;DHT22;29783;52.504;13.478;2024-03-07T04:02:25;3.40;93.90
44121;DHT22;29783;52.504;13.478;2024-03-07T04:04:51;3.40;93.90
44121;DHT22;29783;52.504;13.478;2024-03-07T04:07:18;3.30;93.90
44121;DHT22;29783;52.504;13.478;2024-03-07T04:09:47;3.30;93.90
44121;DHT22;29783;52.504;13.478;2024-03-07T04:12:13;3.30;94.20
44121;DHT22;29783;52.504;13.478;2024-03-07T04:14:43;3.40;94.00
44121;DHT22;29783;52.504;13.478;2024-03-07T04:17:09;3.30;93.90
44121;DHT22;29783;52.504;13.478;2024-03-07T04:19:42;3.30;94.00
44121;DHT22;29783;52.504;13.478;2024-03-07T04:22:08;3.20;93.70
44121;DHT22;29783;52.504;13.478;2024-03-07T04:24:37;3.20;94.10
44121;DHT22;29783;52.504;13.478;2024-03-07T04:27:03;3.20;94.10
44121;DHT22;29783;52.504;13.478;2024-03-07T04:29:30;3.20;94.10
44121;DHT22;29783;52.504;13.478;2024-03-07T04:31:57;3.10;93.90
44121;DHT22;29783;52.504;13.478;2024-03-07T04:34:23;3.00;94.00
44121;DHT22;29783;52.504;13.478;2024-03-07T04:36:49;2.90;94.00
44121;DHT22;29783;52.504;13.478;2024-03-07T04:39:14;2.80;93.90
44121;DHT22;29783;52.504;13.478;2024-03-07T04:41:51;2.80;94.10
44121;DHT22;29783;52.504;13.478;2024-03-07T04:44:18;2.80;94.20
44121;DHT22;29783;52.504;13.478;2024-03-07T04:46:44;2.80;94.60
44121;DHT22;29783;52.504;13.478;2024-03-07T04:49:10;2.80;94.60
44121;DHT22;29783;52.504;13.478;2024-03-07T04:51:36;2.80;94.60
44121;DHT22;29783;52.504;13.478;2024-03-07T04:54:01;2.80;94.70
44121;DHT22;29783;52.504;13.478;2024-03-07T04:56:27;2.80;94.70
44121;DHT22;29783;52.504;13.478;2024-03-07T04:58:52;2.80;94.70
44121;DHT22;29783;52.504;13.478;2024-03-07T05:01:20;2.80;94.40
44121;DHT22;29783;52.504;13.478;2024-03-07T05:03:46;2.80;94.50
44121;DHT22;29783;52.504;13.478;2024-03-07T05:06:11;2.90;94.40
44121;DHT22;29783;52.504;13.478;2024-03-07T05:08:38;2.90;94.20
44121;DHT22;29783;52.504;13.478;2024-03-07T05:11:04;2.80;94.00
44121;DHT22;29783;52.504;13.478;2024-03-07T05:13:29;2.70;93.80
44121;DHT22;29783;52.504;13.478;2024-03-07T05:15:56;2.60;93.90
44121;DHT22;29783;52.504;13.478;2024-03-07T05:18:23;2.60;94.20
44121;DHT22;29783;52.504;13.478;2024-03-07T05:20:48;2.60;94.30
44121;DHT22;29783;52.504;13.478;2024-03-07T05:23:14;2.60;94.40
44121;DHT22;29783;52.504;13.478;2024-03-07T05:25:40;2.70;94.60
44121;DHT22;29783;52.504;13.478;2024-03-07T05:28:06;2.70;94.50
44121;DHT22;29783;52.504;13.478;2024-03-07T05:30:31;2.70;94.60
44121;DHT22;29783;52.504;13.478;2024-03-07T05:32:58;2.60;94.40
44121;DHT22;29783;52.504;13.478;2024-03-07T05:35:26;2.60;94.70
44121;DHT22;29783;52.504;13.478;2024-03-07T05:37:54;2.70;94.60
44121;DHT22;29783;52.504;13.478;2024-03-07T05:40:22;2.70;94.70
44121;DHT22;29783;52.504;13.478;2024-03-07T05:42:48;2.60;94.60
44121;DHT22;29783;52.504;13.478;2024-03-07T05:45:13;2.50;94.50
44121;DHT22;29783;52.504;13.478;2024-03-07T05:47:43;2.50;94.60
44121;DHT22;29783;52.504;13.478;2024-03-07T05:50:09;2.60;94.70
44121;DHT22;29783;52.504;13.478;2024-03-07T05:52:34;2.60;94.70
44121;DHT22;29783;52.504;13.478;2024-03-07T05:55:00;2.60;94.70
44121;DHT22;29783;52.504;13.478;2024-03-07T05:57:26;2.50;94.50
44121;DHT22;29783;52.504;13.478;2024-03-07T05:59:51;2.60;94.10
44121;DHT22;29783;52.504;13.478;2024-03-07T06:02:17;2.60;93.70
44121;DHT22;29783;52.504;13.478;2024-03-07T06:04:43;2.60;93.60
44121;DHT22;29783;52.504;13.478;2024-03-07T06:07:09;2.50;93.50
44121;DHT22;29783;52.504;13.478;2024-03-07T06:09:36;2.50;93.60
44121;DHT22;29783;52.504;13.478;2024-03-07T06:12:02;2.50;93.50
44121;DHT22;29783;52.504;13.478;2024-03-07T06:14:29;2.60;93.30
44121;DHT22;29783;52.504;13.478;2024-03-07T06:16:56;2.50;93.20
44121;DHT22;29783;52.504;13.478;2024-03-07T06:19:23;2.60;93.20
44121;DHT22;29783;52.504;13.478;2024-03-07T06:21:49;2.60;93.00
44121;DHT22;29783;52.504;13.478;2024-03-07T06:24:15;2.60;92.90
44121;DHT22;29783;52.504;13.478;2024-03-07T06:26:42;2.70;92.80
44121;DHT22;29783;52.504;13.478;2024-03-07T06:29:18;2.70;92.70
44121;DHT22;29783;52.504;13.478;2024-03-07T06:31:44;2.70;92.30
44121;DHT22;29783;52.504;13.478;2024-03-07T06:34:13;2.70;91.60
44121;DHT22;29783;52.504;13.478;2024-03-07T06:36:39;2.70;91.40
44121;DHT22;29783;52.504;13.478;2024-03-07T06:39:08;2.70;91.00
44121;DHT22;29783;52.504;13.478;2024-03-07T06:41:36;2.80;90.70
44121;DHT22;29783;52.504;13.478;2024-03-07T06:44:02;2.80;90.40
44121;DHT22;29783;52.504;13.478;2024-03-07T06:46:29;2.80;89.90
44121;DHT22;29783;52.504;13.478;2024-03-07T06:48:55;2.80;89.30
44121;DHT22;29783;52.504;13.478;2024-03-07T06:51:24;2.80;88.80
44121;DHT22;29783;52.504;13.478;2024-03-07T06:53:50;2.80;88.50
44121;DHT22;29783;52.504;13.478;2024-03-07T06:56:16;2.90;88.10
44121;DHT22;29783;52.504;13.478;2024-03-07T06:58:42;2.90;88.10
44121;DHT22;29783;52.504;13.478;2024-03-07T07:01:12;3.00;87.70
44121;DHT22;29783;52.504;13.478;2024-03-07T07:03:41;3.00;87.30
44121;DHT22;29783;52.504;13.478;2024-03-07T07:06:09;3.00;87.40
44121;DHT22;29783;52.504;13.478;2024-03-07T07:08:36;3.10;87.00
44121;DHT22;29783;52.504;13.478;2024-03-07T07:11:02;3.10;86.70
44121;DHT22;29783;52.504;13.478;2024-03-07T07:13:29;3.10;86.60
44121;DHT22;29783;52.504;13.478;2024-03-07T07:15:55;3.20;85.80
44121;DHT22;29783;52.504;13.478;2024-03-07T07:18:21;3.30;84.50
44121;DHT22;29783;52.504;13.478;2024-03-07T07:20:49;3.30;84.40
44121;DHT22;29783;52.504;13.478;2024-03-07T07:23:18;3.30;84.10
44121;DHT22;29783;52.504;13.478;2024-03-07T07:25:44;3.40;83.70
44121;DHT22;29783;52.504;13.478;2024-03-07T07:28:09;3.40;83.40
44121;DHT22;29783;52.504;13.478;2024-03-07T07:30:35;3.40;84.00
44121;DHT22;29783;52.504;13.478;2024-03-07T07:33:00;3.40;83.50
44121;DHT22;29783;52.504;13.478;2024-03-07T07:35:26;3.50;82.10
44121;DHT22;29783;52.504;13.478;2024-03-07T07:37:52;3.50;82.60
44121;DHT22;29783;52.504;13.478;2024-03-07T07:40:21;3.50;82.10
44121;DHT22;29783;52.504;13.478;2024-03-07T07:42:50;3.60;81.90
44121;DHT22;29783;52.504;13.478;2024-03-07T07:45:18;3.70;82.00
44121;DHT22;29783;52.504;13.478;2024-03-07T07:47:45;3.80;80.80
44121;DHT22;29783;52.504;13.478;2024-03-07T07:50:13;3.80;81.00
44121;DHT22;29783;52.504;13.478;2024-03-07T07:52:41;3.80;80.70
44121;DHT22;29783;52.504;13.478;2024-03-07T07:55:07;3.80;80.30
44121;DHT22;29783;52.504;13.478;2024-03-07T08:00:13;3.90;79.70
44121;DHT22;29783;52.504;13.478;2024-03-07T08:03:07;4.00;79.60
44121;DHT22;29783;52.504;13.478;2024-03-07T08:05:36;4.10;79.40
44121;DHT22;29783;52.504;13.478;2024-03-07T08:08:06;4.20;79.70
44121;DHT22;29783;52.504;13.478;2024-03-07T08:10:34;4.20;78.60
44121;DHT22;29783;52.504;13.478;2024-03-07T08:13:01;4.10;78.20
44121;DHT22;29783;52.504;13.478;2024-03-07T08:15:29;4.20;78.40
44121;DHT22;29783;52.504;13.478;2024-03-07T08:17:56;4.30;78.40
44121;DHT22;29783;52.504;13.478;2024-03-07T08:20:23;4.30;78.10
44121;DHT22;29783;52.504;13.478;2024-03-07T08:22:50;4.40;77.50
44121;DHT22;29783;52.504;13.478;2024-03-07T08:25:20;4.50;77.40
44121;DHT22;29783;52.504;13.478;2024-03-07T08:27:48;4.60;77.10
44121;DHT22;29783;52.504;13.478;2024-03-07T08:30:15;4.60;76.50
44121;DHT22;29783;52.504;13.478;2024-03-07T08:32:46;4.60;76.50
44121;DHT22;29783;52.504;13.478;2024-03-07T08:35:12;4.70;76.60
44121;DHT22;29783;52.504;13.478;2024-03-07T08:40:04;4.80;75.70
44121;DHT22;29783;52.504;13.478;2024-03-07T08:42:31;4.90;75.30
44121;DHT22;29783;52.504;13.478;2024-03-07T08:44:59;4.90;75.30
44121;DHT22;29783;52.504;13.478;2024-03-07T08:47:25;5.00;75.00
44121;DHT22;29783;52.504;13.478;2024-03-07T08:49:50;5.00;74.80
44121;DHT22;29783;52.504;13.478;2024-03-07T08:52:16;5.20;74.60
44121;DHT22;29783;52.504;13.478;2024-03-07T08:54:43;5.30;74.80
44121;DHT22;29783;52.504;13.478;2024-03-07T08:57:10;5.30;73.60
44121;DHT22;29783;52.504;13.478;2024-03-07T08:59:35;5.40;73.60
44121;DHT22;29783;52.504;13.478;2024-03-07T09:02:01;5.50;72.50
44121;DHT22;29783;52.504;13.478;2024-03-07T09:04:27;5.60;71.70
44121;DHT22;29783;52.504;13.478;2024-03-07T09:06:54;5.60;71.30
44121;DHT22;29783;52.504;13.478;2024-03-07T09:09:20;5.70;70.40
44121;DHT22;29783;52.504;13.478;2024-03-07T09:11:46;5.70;69.40
44121;DHT22;29783;52.504;13.478;2024-03-07T09:14:12;5.70;69.90
44121;DHT22;29783;52.504;13.478;2024-03-07T09:16:38;5.90;69.70
44121;DHT22;29783;52.504;13.478;2024-03-07T09:19:03;6.00;69.10
44121;DHT22;29783;52.504;13.478;2024-03-07T09:21:29;6.10;68.70
44121;DHT22;29783;52.504;13.478;2024-03-07T09:23:55;6.20;67.60
44121;DHT22;29783;52.504;13.478;2024-03-07T09:26:21;6.40;67.20
44121;DHT22;29783;52.504;13.478;2024-03-07T09:28:46;6.50;66.40
44121;DHT22;29783;52.504;13.478;2024-03-07T09:31:14;6.70;64.70
44121;DHT22;29783;52.504;13.478;2024-03-07T09:33:40;6.70;63.40
44121;DHT22;29783;52.504;13.478;2024-03-07T09:36:06;6.70;61.90
44121;DHT22;29783;52.504;13.478;2024-03-07T09:38:32;6.70;61.30
44121;DHT22;29783;52.504;13.478;2024-03-07T09:40:58;6.70;61.20
44121;DHT22;29783;52.504;13.478;2024-03-07T09:43:26;6.70;61.30
44121;DHT22;29783;52.504;13.478;2024-03-07T09:45:54;6.80;61.20
44121;DHT22;29783;52.504;13.478;2024-03-07T09:48:21;6.90;60.70
44121;DHT22;29783;52.504;13.478;2024-03-07T09:50:52;7.00;59.60
44121;DHT22;29783;52.504;13.478;2024-03-07T09:53:21;7.10;59.60
44121;DHT22;29783;52.504;13.478;2024-03-07T09:55:47;7.20;58.50
44121;DHT22;29783;52.504;13.478;2024-03-07T09:58:14;7.20;57.60
44121;DHT22;29783;52.504;13.478;2024-03-07T10:00:45;7.30;57.30
44121;DHT22;29783;52.504;13.478;2024-03-07T10:03:12;7.50;56.50
44121;DHT22;29783;52.504;13.478;2024-03-07T10:05:41;7.50;55.50
44121;DHT22;29783;52.504;13.478;2024-03-07T10:08:07;7.50;55.10
44121;DHT22;29783;52.504;13.478;2024-03-07T10:10:32;7.60;55.10
44121;DHT22;29783;52.504;13.478;2024-03-07T10:12:59;7.60;55.10
44121;DHT22;29783;52.504;13.478;2024-03-07T10:15:29;7.80;55.10
44121;DHT22;29783;52.504;13.478;2024-03-07T10:17:54;7.80;53.60
44121;DHT22;29783;52.504;13.478;2024-03-07T10:20:20;7.90;53.60
44121;DHT22;29783;52.504;13.478;2024-03-07T10:22:47;8.00;53.00
44121;DHT22;29783;52.504;13.478;2024-03-07T10:25:17;8.10;52.80
44121;DHT22;29783;52.504;13.478;2024-03-07T10:27:43;8.20;51.70
44121;DHT22;29783;52.504;13.478;2024-03-07T10:30:10;8.30;51.20
44121;DHT22;29783;52.504;13.478;2024-03-07T10:32:41;8.30;51.80
44121;DHT22;29783;52.504;13.478;2024-03-07T10:35:07;8.20;52.40
44121;DHT22;29783;52.504;13.478;2024-03-07T10:37:35;8.20;52.50
44121;DHT22;29783;52.504;13.478;2024-03-07T10:40:01;8.30;52.40
44121;DHT22;29783;52.504;13.478;2024-03-07T10:42:45;8.30;51.30
44121;DHT22;29783;52.504;13.478;2024-03-07T10:45:20;8.30;51.50
44121;DHT22;29783;52.504;13.478;2024-03-07T10:47:54;8.50;50.10
44121;DHT22;29783;52.504;13.478;2024-03-07T10:52:58;8.60;51.20
44121;DHT22;29783;52.504;13.478;2024-03-07T10:58:38;8.70;50.50
44121;DHT22;29783;52.504;13.478;2024-03-07T11:01:07;8.70;49.30
44121;DHT22;29783;52.504;13.478;2024-03-07T11:03:36;8.60;50.10
44121;DHT22;29783;52.504;13.478;2024-03-07T11:06:02;8.50;50.60
44121;DHT22;29783;52.504;13.478;2024-03-07T11:08:33;8.50;51.00
44121;DHT22;29783;52.504;13.478;2024-03-07T11:11:00;8.50;51.30
44121;DHT22;29783;52.504;13.478;2024-03-07T11:13:26;8.60;50.90
44121;DHT22;29783;52.504;13.478;2024-03-07T11:15:53;8.60;50.60
44121;DHT22;29783;52.504;13.478;2024-03-07T11:18:23;8.80;49.60
44121;DHT22;29783;52.504;13.478;2024-03-07T11:20:49;8.70;49.30
44121;DHT22;29783;52.504;13.478;2024-03-07T11:23:31;8.60;49.70
44121;DHT22;29783;52.504;13.478;2024-03-07T11:26:08;8.40;50.10
44121;DHT22;29783;52.504;13.478;2024-03-07T11:28:39;8.60;50.40
44121;DHT22;29783;52.504;13.478;2024-03-07T11:31:15;8.70;50.20
44121;DHT22;29783;52.504;13.478;2024-03-07T11:33:41;8.70;49.70
44121;DHT22;29783;52.504;13.478;2024-03-07T11:36:09;8.80;49.30
44121;DHT22;29783;52.504;13.478;2024-03-07T11:38:50;8.70;49.50
44121;DHT22;29783;52.504;13.478;2024-03-07T11:41:19;8.70;50.00
44121;DHT22;29783;52.504;13.478;2024-03-07T11:43:45;8.80;50.70
44121;DHT22;29783;52.504;13.478;2024-03-07T11:46:11;8.90;50.20
44121;DHT22;29783;52.504;13.478;2024-03-07T11:48:42;8.80;49.80
44121;DHT22;29783;52.504;13.478;2024-03-07T11:51:07;8.80;49.60
44121;DHT22;29783;52.504;13.478;2024-03-07T11:53:38;8.80;49.40
44121;DHT22;29783;52.504;13.478;2024-03-07T11:56:05;8.60;49.90
44121;DHT22;29783;52.504;13.478;2024-03-07T11:58:38;8.60;50.00
44121;DHT22;29783;52.504;13.478;2024-03-07T12:01:06;8.70;50.80
44121;DHT22;29783;52.504;13.478;2024-03-07T12:03:36;8.80;50.80
44121;DHT22;29783;52.504;13.478;2024-03-07T12:06:03;9.00;50.30
44121;DHT22;29783;52.504;13.478;2024-03-07T12:08:29;9.00;50.60
44121;DHT22;29783;52.504;13.478;2024-03-07T12:10:55;9.20;49.30
44121;DHT22;29783;52.504;13.478;2024-03-07T12:13:22;9.10;48.30
44121;DHT22;29783;52.504;13.478;2024-03-07T12:15:48;9.20;48.10
44121;DHT22;29783;52.504;13.478;2024-03-07T12:18:17;9.10;48.90
44121;DHT22;29783;52.504;13.478;2024-03-07T12:20:44;9.10;49.20
44121;DHT22;29783;52.504;13.478;2024-03-07T12:23:21;9.10;49.20
44121;DHT22;29783;52.504;13.478;2024-03-07T12:25:47;9.20;48.80
44121;DHT22;29783;52.504;13.478;2024-03-07T12:28:14;9.30;47.30
44121;DHT22;29783;52.504;13.478;2024-03-07T12:30:53;9.30;47.00
44121;DHT22;29783;52.504;13.478;2024-03-07T12:33:20;9.30;46.90
44121;DHT22;29783;52.504;13.478;2024-03-07T12:35:47;9.50;45.60
44121;DHT22;29783;52.504;13.478;2024-03-07T12:38:15;9.50;45.00
44121;DHT22;29783;52.504;13.478;2024-03-07T12:40:43;9.70;44.40
44121;DHT22;29783;52.504;13.478;2024-03-07T12:43:19;9.90;43.60
44121;DHT22;29783;52.504;13.478;2024-03-07T12:45:50;10.60;41.90
44121;DHT22;29783;52.504;13.478;2024-03-07T12:48:20;11.10;39.70
44121;DHT22;29783;52.504;13.478;2024-03-07T12:50:47;11.30;38.90
44121;DHT22;29783;52.504;13.478;2024-03-07T12:53:27;12.10;38.40
44121;DHT22;29783;52.504;13.478;2024-03-07T12:55:54;12.70;37.10
44121;DHT22;29783;52.504;13.478;2024-03-07T12:58:20;13.10;36.10
44121;DHT22;29783;52.504;13.478;2024-03-07T13:00:51;13.30;36.50
44121;DHT22;29783;52.504;13.478;2024-03-07T13:03:17;13.40;36.60
44121;DHT22;29783;52.504;13.478;2024-03-07T13:05:43;13.20;37.30
44121;DHT22;29783;52.504;13.478;2024-03-07T13:08:12;13.30;36.80
44121;DHT22;29783;52.504;13.478;2024-03-07T13:10:46;13.80;35.80
44121;DHT22;29783;52.504;13.478;2024-03-07T13:13:12;14.30;35.00
44121;DHT22;29783;52.504;13.478;2024-03-07T13:15:38;15.00;33.50
44121;DHT22;29783;52.504;13.478;2024-03-07T13:18:05;14.80;32.40
44121;DHT22;29783;52.504;13.478;2024-03-07T13:20:31;14.50;32.30
44121;DHT22;29783;52.504;13.478;2024-03-07T13:22:57;14.90;31.40
44121;DHT22;29783;52.504;13.478;2024-03-07T13:25:26;16.00;30.40
44121;DHT22;29783;52.504;13.478;2024-03-07T13:28:05;16.20;29.20
44121;DHT22;29783;52.504;13.478;2024-03-07T13:30:39;16.60;29.30
44121;DHT22;29783;52.504;13.478;2024-03-07T13:33:05;17.20;28.60
44121;DHT22;29783;52.504;13.478;2024-03-07T13:35:31;17.40;28.80
44121;DHT22;29783;52.504;13.478;2024-03-07T13:37:57;17.90;28.20
44121;DHT22;29783;52.504;13.478;2024-03-07T13:40:24;17.70;28.00
44121;DHT22;29783;52.504;13.478;2024-03-07T13:42:54;17.50;28.20
44121;DHT22;29783;52.504;13.478;2024-03-07T13:45:26;17.50;28.00
44121;DHT22;29783;52.504;13.478;2024-03-07T13:47:55;17.20;27.90
44121;DHT22;29783;52.504;13.478;2024-03-07T13:50:30;16.90;28.10
44121;DHT22;29783;52.504;13.478;2024-03-07T13:52:56;17.10;28.00
44121;DHT22;29783;52.504;13.478;2024-03-07T14:14:38;15.60;30.60
44121;DHT22;29783;52.504;13.478;2024-03-07T14:31:51;16.20;30.60
44121;DHT22;29783;52.504;13.478;2024-03-07T14:37:27;16.70;29.10
44121;DHT22;29783;52.504;13.478;2024-03-07T14:40:07;16.30;30.00
44121;DHT22;29783;52.504;13.478;2024-03-07T14:42:37;16.00;30.60
44121;DHT22;29783;52.504;13.478;2024-03-07T14:45:07;16.00;31.20
44121;DHT22;29783;52.504;13.478;2024-03-07T14:47:35;16.60;31.00
44121;DHT22;29783;52.504;13.478;2024-03-07T14:50:00;16.50;30.60
44121;DHT22;29783;52.504;13.478;2024-03-07T14:52:27;16.70;30.50
44121;DHT22;29783;52.504;13.478;2024-03-07T14:54:55;16.30;31.10
44121;DHT22;29783;52.504;13.478;2024-03-07T14:57:20;16.20;31.80
44121;DHT22;29783;52.504;13.478;2024-03-07T14:59:46;16.80;30.40
44121;DHT22;29783;52.504;13.478;2024-03-07T15:02:12;16.70;30.50
44121;DHT22;29783;52.504;13.478;2024-03-07T15:04:40;16.20;31.90
44121;DHT22;29783;52.504;13.478;2024-03-07T15:07:06;16.40;31.50
44121;DHT22;29783;52.504;13.478;2024-03-07T15:09:35;16.60;30.50
44121;DHT22;29783;52.504;13.478;2024-03-07T15:12:02;16.30;30.10
44121;DHT22;29783;52.504;13.478;2024-03-07T15:14:27;15.70;31.30
44121;DHT22;29783;52.504;13.478;2024-03-07T15:16:53;15.60;31.70
44121;DHT22;29783;52.504;13.478;2024-03-07T15:19:18;15.50;31.90
44121;DHT22;29783;52.504;13.478;2024-03-07T15:21:44;15.50;32.20
44121;DHT22;29783;52.504;13.478;2024-03-07T15:24:10;15.70;31.90
44121;DHT22;29783;52.504;13.478;2024-03-07T15:26:36;15.70;31.90
44121;DHT22;29783;52.504;13.478;2024-03-07T15:29:04;15.60;31.90
44121;DHT22;29783;52.504;13.478;2024-03-07T15:31:30;15.20;32.00
44121;DHT22;29783;52.504;13.478;2024-03-07T15:33:56;15.00;32.30
44121;DHT22;29783;52.504;13.478;2024-03-07T15:36:22;14.50;33.00
44121;DHT22;29783;52.504;13.478;2024-03-07T15:38:48;14.20;34.30
44121;DHT22;29783;52.504;13.478;2024-03-07T15:41:14;14.40;33.30
44121;DHT22;29783;52.504;13.478;2024-03-07T15:43:41;15.00;32.40
44121;DHT22;29783;52.504;13.478;2024-03-07T15:46:16;14.80;32.70
44121;DHT22;29783;52.504;13.478;2024-03-07T15:48:44;14.70;33.40
44121;DHT22;29783;52.504;13.478;2024-03-07T15:51:11;14.40;33.40
44121;DHT22;29783;52.504;13.478;2024-03-07T15:53:37;13.70;34.60
44121;DHT22;29783;52.504;13.478;2024-03-07T15:56:03;12.70;36.30
44121;DHT22;29783;52.504;13.478;2024-03-07T15:58:32;12.50;37.10
44121;DHT22;29783;52.504;13.478;2024-03-07T16:00:57;12.10;38.60
44121;DHT22;29783;52.504;13.478;2024-03-07T16:03:23;11.90;38.70
44121;DHT22;29783;52.504;13.478;2024-03-07T16:05:50;11.70;39.00
44121;DHT22;29783;52.504;13.478;2024-03-07T16:08:17;11.60;39.60
44121;DHT22;29783;52.504;13.478;2024-03-07T16:10:44;11.50;39.20
44121;DHT22;29783;52.504;13.478;2024-03-07T16:13:13;11.30;39.50
44121;DHT22;29783;52.504;13.478;2024-03-07T16:15:41;11.00;40.40
44121;DHT22;29783;52.504;13.478;2024-03-07T16:18:07;10.90;40.50